Itapeva, Brazil
Current Conditions -  °F | °C
As of 7:00 PM on Tuesday 27 Jan 2015 (Local Time) from SBSJ Reporting Station
Scattered Clouds Scattered Clouds  
Wind Chill: 88°   Ceiling: Unl
Heat Index: 88°   Visibility: 6mi
Dew Point: 63°   Wind: 8mph
Humidity: 43%   Direction: 180°S
Pressure: 29.94"   Gusts: NA
Location:  22.77°S, 46.22°W
Report Text: SBSJ 272100Z 18007KT 9999 SCT030 FEW033TCU 31/17 Q1014
Loading
Personal Weather Stations






























Interactive Weather Map New forecast layout! Learn more

10-Day Weather Forecast

Advertisements
Track Severe Weather on mobile